createdAt,value
2017-05-09T00:01:23.683Z,2.68
2017-05-09T00:03:53.345Z,2.82
2017-05-09T00:06:22.297Z,2.98
2017-05-09T00:08:51.963Z,2.73
2017-05-09T00:11:20.884Z,2.50
2017-05-09T00:13:50.180Z,2.75
2017-05-09T00:16:19.111Z,3.22
2017-05-09T00:18:48.014Z,2.58
2017-05-09T00:21:16.968Z,2.90
2017-05-09T00:23:46.626Z,2.23
2017-05-09T00:26:15.544Z,2.40
2017-05-09T00:28:44.500Z,2.70
2017-05-09T00:31:13.420Z,2.42
2017-05-09T00:33:42.345Z,2.50
2017-05-09T00:36:12.018Z,3.08
2017-05-09T00:38:40.922Z,2.33
2017-05-09T00:41:09.830Z,2.38
2017-05-09T00:43:38.770Z,2.15
2017-05-09T00:46:07.694Z,2.65
2017-05-09T00:48:36.618Z,2.50
2017-05-09T00:51:06.313Z,2.28
2017-05-09T00:53:35.218Z,2.50
2017-05-09T00:56:04.881Z,2.67
2017-05-09T00:58:33.837Z,3.02
2017-05-09T01:01:02.764Z,2.70
2017-05-09T01:03:31.688Z,2.07
2017-05-09T01:06:00.618Z,2.18
2017-05-09T01:08:29.551Z,2.58
2017-05-09T01:10:58.474Z,2.02
2017-05-09T01:13:27.666Z,2.55
2017-05-09T01:15:56.588Z,2.40
2017-05-09T01:18:25.517Z,2.70
2017-05-09T01:20:54.445Z,2.48
2017-05-09T01:23:23.347Z,2.42
2017-05-09T01:25:53.002Z,2.07
2017-05-09T01:28:21.949Z,2.22
2017-05-09T01:30:51.590Z,2.17
2017-05-09T01:33:20.496Z,2.17
2017-05-09T01:35:49.448Z,2.32
2017-05-09T01:38:19.090Z,2.37
2017-05-09T01:40:47.993Z,2.27
2017-05-09T01:43:17.035Z,1.92
2017-05-09T01:45:46.678Z,1.92
2017-05-09T01:48:15.596Z,2.07
2017-05-09T01:50:44.552Z,2.18
2017-05-09T01:53:13.456Z,2.45
2017-05-09T01:55:42.384Z,3.33
2017-05-09T01:58:11.326Z,2.08
2017-05-09T02:00:40.239Z,1.93
2017-05-09T02:03:09.146Z,2.30
2017-05-09T02:05:38.083Z,2.48
2017-05-09T02:08:07.753Z,2.35
2017-05-09T02:10:36.682Z,2.60
2017-05-09T02:13:06.376Z,2.22
2017-05-09T02:15:35.296Z,2.27
2017-05-09T02:18:04.964Z,2.52
2017-05-09T02:20:34.023Z,2.13
2017-05-09T02:23:02.926Z,2.15
2017-05-09T02:25:31.825Z,1.90
2017-05-09T02:28:00.765Z,2.03
2017-05-09T02:30:30.427Z,2.20
2017-05-09T02:32:59.350Z,2.35
2017-05-09T02:35:28.281Z,2.35
2017-05-09T02:37:57.213Z,1.98
2017-05-09T02:40:26.186Z,2.10
2017-05-09T02:42:55.133Z,2.20
2017-05-09T02:45:24.056Z,2.87
2017-05-09T02:47:52.981Z,2.52
2017-05-09T02:50:22.313Z,2.37
2017-05-09T02:52:51.214Z,2.43
2017-05-09T02:55:20.876Z,2.28
2017-05-09T02:57:49.814Z,2.47
2017-05-09T03:00:19.458Z,2.58
2017-05-09T03:02:48.364Z,2.50
2017-05-09T03:05:17.317Z,2.53
2017-05-09T03:07:46.970Z,2.25
2017-05-09T03:10:15.885Z,2.33
2017-05-09T03:12:44.821Z,2.97
2017-05-09T03:15:13.740Z,2.40
2017-05-09T03:17:42.663Z,2.80
2017-05-09T03:20:11.619Z,2.22
2017-05-09T03:22:40.541Z,2.52
2017-05-09T03:25:09.445Z,2.80
2017-05-09T03:27:38.400Z,2.37
2017-05-09T03:30:07.301Z,2.98
2017-05-09T03:32:36.229Z,2.30
2017-05-09T03:35:05.203Z,2.55
2017-05-09T03:37:34.106Z,3.23
2017-05-09T03:40:03.015Z,2.25
2017-05-09T03:42:32.799Z,2.73
2017-05-09T03:45:01.702Z,2.78
2017-05-09T03:47:30.620Z,2.72
2017-05-09T03:50:00.701Z,2.53
2017-05-09T03:52:29.610Z,2.65
2017-05-09T03:54:58.521Z,2.58
2017-05-09T03:57:28.229Z,2.97
2017-05-09T03:59:57.153Z,2.87
2017-05-09T04:02:26.080Z,3.25
2017-05-09T04:04:55.034Z,2.60
2017-05-09T04:07:23.956Z,3.67
2017-05-09T04:09:52.858Z,2.65
2017-05-09T04:12:21.808Z,2.52
2017-05-09T04:14:50.729Z,2.83
2017-05-09T04:17:19.673Z,2.85
2017-05-09T04:19:48.996Z,2.67
2017-05-09T04:22:17.921Z,2.60
2017-05-09T04:24:46.845Z,3.08
2017-05-09T04:27:15.800Z,2.93
2017-05-09T04:29:44.705Z,3.70
2017-05-09T04:32:13.628Z,3.23
2017-05-09T04:34:42.584Z,3.17
2017-05-09T04:37:11.495Z,3.12
2017-05-09T04:39:40.405Z,3.18
2017-05-09T04:42:09.353Z,2.70
2017-05-09T04:44:38.262Z,4.78
2017-05-09T04:47:07.174Z,3.52
2017-05-09T04:49:36.141Z,3.60
2017-05-09T04:52:05.815Z,3.58
2017-05-09T04:54:34.744Z,3.47
2017-05-09T04:57:04.435Z,2.98
2017-05-09T04:59:33.356Z,3.27
2017-05-09T05:02:03.001Z,3.02
2017-05-09T05:04:31.954Z,3.35
2017-05-09T05:07:01.621Z,2.85
2017-05-09T05:09:30.546Z,3.40
2017-05-09T05:12:00.225Z,2.63
2017-05-09T05:14:29.153Z,2.82
2017-05-09T05:16:58.815Z,2.93
2017-05-09T05:19:27.773Z,2.83
2017-05-09T05:21:56.692Z,3.07
2017-05-09T05:24:25.616Z,3.55
2017-05-09T05:26:54.547Z,2.83
2017-05-09T05:29:23.462Z,2.83
2017-05-09T05:31:52.368Z,3.10
2017-05-09T05:34:21.293Z,3.45
2017-05-09T05:36:50.194Z,3.85
2017-05-09T05:39:19.837Z,3.22
2017-05-09T05:41:48.766Z,4.03
2017-05-09T05:44:17.756Z,4.25
2017-05-09T05:46:46.676Z,6.43
2017-05-09T05:49:15.625Z,6.67
2017-05-09T05:51:44.549Z,6.57
2017-05-09T05:54:13.457Z,3.38
2017-05-09T05:56:43.143Z,10.10
2017-05-09T05:59:12.076Z,6.12
2017-05-09T06:01:40.982Z,5.90
2017-05-09T06:04:09.933Z,3.30
2017-05-09T06:06:38.861Z,7.03
2017-05-09T06:09:07.766Z,3.43
2017-05-09T06:11:36.720Z,3.80
2017-05-09T06:14:06.370Z,4.83
2017-05-09T06:16:35.297Z,3.70
2017-05-09T06:19:04.255Z,3.97
2017-05-09T06:21:33.180Z,3.05
2017-05-09T06:24:02.110Z,6.37
2017-05-09T06:26:31.794Z,3.55
2017-05-09T06:29:00.728Z,2.85
2017-05-09T06:31:29.637Z,2.70
2017-05-09T06:33:58.596Z,2.78
2017-05-09T06:36:28.250Z,3.62
2017-05-09T06:38:57.166Z,3.27
2017-05-09T06:41:26.123Z,2.83
2017-05-09T06:43:55.038Z,2.82
2017-05-09T06:46:23.970Z,2.70
2017-05-09T06:48:53.654Z,4.30
2017-05-09T06:51:22.593Z,3.00
2017-05-09T06:53:51.503Z,3.85
2017-05-09T06:56:20.446Z,2.58
2017-05-09T06:58:49.372Z,2.95
2017-05-09T07:01:18.304Z,5.35
2017-05-09T07:03:47.255Z,4.82
2017-05-09T07:06:16.184Z,6.13
2017-05-09T07:08:45.097Z,3.95
2017-05-09T07:11:14.033Z,5.80
2017-05-09T07:13:42.965Z,2.48
2017-05-09T07:16:11.883Z,2.93
2017-05-09T07:18:40.837Z,2.42
2017-05-09T07:21:09.750Z,2.27
2017-05-09T07:23:38.667Z,3.67
2017-05-09T07:26:08.362Z,2.85
2017-05-09T07:28:37.279Z,2.32
2017-05-09T07:31:06.956Z,2.37
2017-05-09T07:33:35.898Z,1.90
2017-05-09T07:36:05.842Z,2.23
2017-05-09T07:38:34.792Z,2.33
2017-05-09T07:41:04.497Z,3.10
2017-05-09T07:43:34.168Z,1.90
2017-05-09T07:46:03.092Z,1.53
2017-05-09T07:48:32.782Z,1.97
2017-05-09T07:51:02.689Z,2.80
2017-05-09T07:53:31.603Z,1.62
2017-05-09T07:56:00.549Z,3.48
2017-05-09T07:58:29.467Z,1.78
2017-05-09T08:00:58.478Z,2.25
2017-05-09T08:03:27.417Z,2.48
2017-05-09T08:05:56.343Z,2.78
2017-05-09T08:08:25.275Z,1.70
2017-05-09T08:10:54.972Z,1.97
2017-05-09T08:13:24.648Z,2.85
2017-05-09T08:15:53.563Z,2.30
2017-05-09T08:18:22.515Z,2.32
2017-05-09T08:20:51.426Z,2.38
2017-05-09T08:23:20.341Z,2.10
2017-05-09T08:25:49.305Z,1.70
2017-05-09T08:28:18.239Z,1.92
2017-05-09T08:30:47.166Z,1.77
2017-05-09T08:33:16.317Z,1.74
2017-05-09T08:35:45.234Z,1.84
2017-05-09T08:38:14.171Z,2.56
2017-05-09T08:40:43.125Z,2.08
2017-05-09T08:43:12.056Z,2.00
2017-05-09T08:45:40.969Z,1.66
2017-05-09T08:48:09.940Z,2.04
2017-05-09T08:50:38.853Z,2.12
2017-05-09T08:53:07.769Z,2.12
2017-05-09T08:55:37.481Z,1.94
2017-05-09T08:58:07.133Z,1.92
2017-05-09T09:00:36.050Z,2.82
2017-05-09T09:03:04.985Z,2.30
2017-05-09T09:05:33.902Z,3.56
2017-05-09T09:08:02.832Z,2.18
2017-05-09T09:10:31.773Z,2.90
2017-05-09T09:13:00.708Z,2.40
2017-05-09T09:15:29.622Z,2.04
2017-05-09T09:17:58.593Z,1.74
2017-05-09T09:20:27.505Z,3.14
2017-05-09T09:22:56.437Z,2.36
2017-05-09T09:25:25.392Z,1.90
2017-05-09T09:27:54.320Z,2.02
2017-05-09T09:30:23.255Z,2.70
2017-05-09T09:32:52.219Z,2.58
2017-05-09T09:35:21.131Z,2.34
2017-05-09T09:37:50.042Z,2.40
2017-05-09T09:40:19.002Z,1.90
2017-05-09T09:42:47.933Z,1.98
2017-05-09T09:45:16.864Z,2.08
2017-05-09T09:47:45.903Z,2.08
2017-05-09T09:50:14.832Z,1.88
2017-05-09T09:52:44.501Z,1.80
2017-05-09T09:55:13.438Z,1.70
2017-05-09T09:57:43.112Z,2.10
2017-05-09T10:00:12.039Z,2.20
2017-05-09T10:02:41.736Z,2.06
2017-05-09T10:05:11.405Z,1.94
2017-05-09T10:07:40.338Z,2.14
2017-05-09T10:10:10.048Z,2.20
2017-05-09T10:12:38.978Z,1.96
2017-05-09T10:15:07.908Z,2.50
2017-05-09T10:17:36.856Z,2.18
2017-05-09T10:20:05.781Z,2.50
2017-05-09T10:22:34.704Z,2.18
2017-05-09T10:25:03.641Z,2.06
2017-05-09T10:27:32.630Z,2.22
2017-05-09T10:30:01.538Z,2.18
2017-05-09T10:32:30.485Z,2.34
2017-05-09T10:35:00.153Z,2.10
2017-05-09T10:37:29.062Z,2.00
2017-05-09T10:39:58.017Z,2.32
2017-05-09T10:42:26.940Z,2.40
2017-05-09T10:44:55.864Z,2.26
2017-05-09T10:47:25.592Z,2.30
2017-05-09T10:49:55.238Z,1.96
2017-05-09T10:52:24.146Z,2.28
2017-05-09T10:54:53.087Z,1.92
2017-05-09T10:57:22.015Z,2.12
2017-05-09T10:59:50.927Z,2.30
2017-05-09T11:02:19.861Z,2.08
2017-05-09T11:04:48.786Z,2.24
2017-05-09T11:07:17.694Z,2.44
2017-05-09T11:09:46.621Z,2.32
2017-05-09T11:12:16.266Z,2.10
2017-05-09T11:14:45.190Z,2.22
2017-05-09T11:17:14.140Z,2.43
2017-05-09T11:19:43.050Z,2.50
2017-05-09T11:22:11.953Z,2.02
2017-05-09T11:24:40.904Z,1.84
2017-05-09T11:27:10.569Z,2.06
2017-05-09T11:29:39.478Z,2.40
2017-05-09T11:32:08.410Z,2.58
2017-05-09T11:34:37.336Z,2.42
2017-05-09T11:37:08.517Z,2.32
2017-05-09T11:39:38.198Z,2.50
2017-05-09T11:42:07.132Z,2.90
2017-05-09T11:44:36.809Z,2.90
2017-05-09T11:47:05.760Z,2.30
2017-05-09T11:49:34.701Z,2.56
2017-05-09T11:52:03.610Z,3.08
2017-05-09T11:54:33.314Z,2.86
2017-05-09T11:57:02.978Z,2.64
2017-05-09T11:59:31.894Z,2.60
2017-05-09T12:02:00.844Z,2.60
2017-05-09T12:04:29.767Z,3.13
2017-05-09T12:06:58.712Z,2.80
2017-05-09T12:09:27.670Z,3.00
2017-05-09T12:11:56.604Z,2.78
2017-05-09T12:14:25.513Z,2.73
2017-05-09T12:16:54.466Z,2.50
2017-05-09T12:19:24.141Z,3.30
2017-05-09T12:21:53.063Z,3.10
2017-05-09T12:24:22.809Z,3.15
2017-05-09T12:26:51.745Z,2.92
2017-05-09T12:29:20.658Z,3.17
2017-05-09T12:31:49.599Z,2.95
2017-05-09T12:34:18.517Z,2.75
2017-05-09T12:36:47.448Z,3.38
2017-05-09T12:39:16.385Z,3.13
2017-05-09T12:41:46.053Z,3.33
2017-05-09T12:44:14.985Z,3.58
2017-05-09T12:46:44.708Z,3.12
2017-05-09T12:49:14.384Z,3.20
2017-05-09T12:51:43.347Z,3.13
2017-05-09T12:54:12.295Z,3.02
2017-05-09T12:56:41.965Z,3.33
2017-05-09T12:59:10.897Z,2.80
2017-05-09T13:01:40.597Z,3.13
2017-05-09T13:04:09.530Z,3.32
2017-05-09T13:06:38.464Z,3.83
2017-05-09T13:09:08.145Z,2.65
2017-05-09T13:11:37.081Z,3.32
2017-05-09T13:14:06.040Z,3.22
2017-05-09T13:16:35.102Z,3.55
2017-05-09T13:19:04.037Z,4.05
2017-05-09T13:21:32.957Z,5.05
2017-05-09T13:24:01.914Z,3.63
2017-05-09T13:26:30.849Z,3.12
2017-05-09T13:28:59.757Z,3.87
2017-05-09T13:31:28.694Z,3.03
2017-05-09T13:33:57.606Z,3.05
2017-05-09T13:36:27.277Z,2.48
2017-05-09T13:38:56.229Z,3.15
2017-05-09T13:41:25.178Z,2.62
2017-05-09T13:43:54.183Z,2.35
2017-05-09T13:46:23.189Z,2.93
2017-05-09T13:48:52.859Z,2.77
2017-05-09T13:51:21.770Z,4.63
2017-05-09T13:53:50.716Z,2.92
2017-05-09T13:56:19.653Z,3.12
2017-05-09T13:58:48.588Z,3.05
2017-05-09T14:01:17.540Z,2.05
2017-05-09T14:03:46.453Z,3.83
2017-05-09T14:06:16.110Z,7.52
2017-05-09T14:08:45.053Z,6.47
2017-05-09T14:11:14.724Z,4.80
2017-05-09T14:13:43.660Z,6.80
2017-05-09T14:16:12.626Z,9.82
2017-05-09T14:18:41.589Z,4.25
2017-05-09T14:21:10.782Z,5.10
2017-05-09T14:23:39.725Z,3.08
2017-05-09T14:26:09.400Z,3.43
2017-05-09T14:28:38.332Z,3.60
2017-05-09T14:31:08.028Z,3.10
2017-05-09T14:33:36.957Z,3.67
2017-05-09T14:36:05.908Z,3.50
2017-05-09T14:38:34.869Z,4.38
2017-05-09T14:41:05.643Z,3.73
2017-05-09T14:43:34.557Z,3.05
2017-05-09T14:46:04.237Z,3.05
2017-05-09T14:48:33.169Z,5.30
2017-05-09T14:51:02.095Z,3.15
2017-05-09T14:53:31.037Z,5.43
2017-05-09T14:56:00.709Z,2.92
2017-05-09T14:58:29.642Z,4.88
2017-05-09T15:00:59.322Z,3.08
2017-05-09T15:03:28.256Z,3.84
2017-05-09T15:05:57.170Z,3.20
2017-05-09T15:10:54.613Z,3.83
2017-05-09T15:13:24.284Z,4.32
2017-05-09T15:15:53.227Z,5.47
2017-05-09T15:18:22.137Z,3.50
2017-05-09T15:20:51.073Z,3.02
2017-05-09T15:23:20.035Z,4.12
2017-05-09T15:25:48.967Z,3.52
2017-05-09T15:28:18.623Z,3.42
2017-05-09T15:30:47.566Z,3.70
2017-05-09T15:33:16.500Z,3.78
2017-05-09T15:35:45.413Z,3.73
2017-05-09T15:38:14.355Z,3.17
2017-05-09T15:40:44.027Z,3.40
2017-05-09T15:43:12.956Z,4.02
2017-05-09T15:45:42.455Z,3.73
2017-05-09T15:48:12.064Z,3.52
2017-05-09T15:50:41.045Z,3.65
2017-05-09T15:53:09.991Z,3.20
2017-05-09T15:55:38.909Z,3.32
2017-05-09T15:58:07.841Z,3.77
2017-05-09T16:00:36.849Z,4.92
2017-05-09T16:03:06.524Z,3.35
2017-05-09T16:05:35.464Z,2.62
2017-05-09T16:08:04.410Z,3.63
2017-05-09T16:10:33.348Z,2.83
2017-05-09T16:13:02.266Z,3.47
2017-05-09T16:15:32.159Z,3.30
2017-05-09T16:18:01.069Z,2.97
2017-05-09T16:20:29.978Z,4.42
2017-05-09T16:22:58.937Z,2.88
2017-05-09T16:25:27.869Z,3.25
2017-05-09T16:27:56.782Z,3.33
2017-05-09T16:30:25.736Z,3.78
2017-05-09T16:32:55.123Z,2.92
2017-05-09T16:35:24.034Z,3.48
2017-05-09T16:37:52.978Z,3.55
2017-05-09T16:40:23.438Z,3.13
2017-05-09T16:42:52.389Z,3.00
2017-05-09T16:45:21.409Z,3.30
2017-05-09T16:47:51.089Z,3.27
2017-05-09T16:50:20.004Z,3.67
2017-05-09T16:52:49.681Z,3.08
2017-05-09T16:55:18.594Z,3.02
2017-05-09T16:57:48.253Z,3.45
2017-05-09T17:00:17.211Z,3.23
2017-05-09T17:02:46.880Z,2.45
2017-05-09T17:05:15.806Z,2.73
2017-05-09T17:07:45.504Z,2.80
2017-05-09T17:10:14.440Z,3.18
2017-05-09T17:12:43.369Z,3.00
2017-05-09T17:15:12.333Z,4.68
2017-05-09T17:17:41.261Z,3.75
2017-05-09T17:20:10.197Z,4.98
2017-05-09T17:22:39.133Z,3.32
2017-05-09T17:25:08.065Z,4.00
2017-05-09T17:27:37.736Z,3.28
2017-05-09T17:30:06.696Z,3.45
2017-05-09T17:32:35.610Z,3.07
2017-05-09T17:35:04.527Z,3.22
2017-05-09T17:37:33.470Z,3.18
2017-05-09T17:40:02.413Z,2.75
2017-05-09T17:42:31.326Z,3.30
2017-05-09T17:45:01.036Z,3.22
2017-05-09T17:47:30.705Z,3.23
2017-05-09T17:49:59.640Z,2.98
2017-05-09T17:52:29.344Z,2.95
2017-05-09T17:54:59.001Z,5.12
2017-05-09T17:57:27.918Z,5.92
2017-05-09T17:59:56.856Z,4.57
2017-05-09T18:02:25.774Z,5.20
2017-05-09T18:04:54.707Z,5.92
2017-05-09T18:07:23.668Z,4.82
2017-05-09T18:09:52.582Z,5.30
2017-05-09T18:12:21.497Z,4.62
2017-05-09T18:14:51.184Z,4.72
2017-05-09T18:17:20.118Z,6.53
2017-05-09T18:19:49.054Z,3.88
2017-05-09T18:22:18.016Z,4.35
2017-05-09T18:24:46.949Z,3.92
2017-05-09T18:27:15.873Z,3.65
2017-05-09T18:29:45.582Z,3.63
2017-05-09T18:32:15.259Z,4.38
2017-05-09T18:34:44.179Z,3.72
2017-05-09T18:37:13.141Z,4.08
2017-05-09T18:39:42.054Z,4.03
2017-05-09T18:42:10.971Z,4.38
2017-05-09T18:44:40.670Z,3.90
2017-05-09T18:47:10.328Z,3.67
2017-05-09T18:49:39.246Z,3.55
2017-05-09T18:52:08.197Z,3.40
2017-05-09T18:54:37.129Z,4.28
2017-05-09T18:57:06.044Z,3.67
2017-05-09T18:59:35.006Z,3.65
2017-05-09T19:02:03.931Z,3.18
2017-05-09T19:04:34.574Z,3.52
2017-05-09T19:07:04.297Z,3.63
2017-05-09T19:09:33.318Z,3.60
2017-05-09T19:12:03.172Z,4.22
2017-05-09T19:14:32.114Z,4.65
2017-05-09T19:17:01.027Z,4.53
2017-05-09T19:19:29.949Z,3.88
2017-05-09T19:21:58.890Z,3.62
2017-05-09T19:24:27.827Z,3.78
2017-05-09T19:26:56.762Z,3.77
2017-05-09T19:29:25.733Z,3.95
2017-05-09T19:31:55.394Z,5.10
2017-05-09T19:34:24.314Z,5.80
2017-05-09T19:36:53.270Z,4.07
2017-05-09T19:39:22.189Z,4.50
2017-05-09T19:41:51.121Z,4.98
2017-05-09T19:44:20.833Z,5.27
2017-05-09T19:46:50.502Z,5.12
2017-05-09T19:49:19.425Z,4.63
2017-05-09T19:51:49.125Z,4.78
2017-05-09T19:54:18.042Z,5.00
2017-05-09T19:56:46.959Z,3.85
2017-05-09T19:59:15.939Z,4.40
2017-05-09T20:01:44.929Z,4.03
2017-05-09T20:04:13.871Z,3.82
2017-05-09T20:06:42.823Z,4.47
2017-05-09T20:09:11.740Z,3.62
2017-05-09T20:11:40.717Z,3.38
2017-05-09T20:14:09.676Z,3.60
2017-05-09T20:16:39.354Z,4.17
2017-05-09T20:19:08.314Z,3.23
2017-05-09T20:21:37.277Z,3.78
2017-05-09T20:24:06.936Z,4.22
2017-05-09T20:26:35.854Z,3.43
2017-05-09T20:29:04.796Z,3.80
2017-05-09T20:31:33.746Z,4.00
2017-05-09T20:34:02.664Z,2.65
2017-05-09T20:36:31.602Z,3.08
2017-05-09T20:39:00.532Z,3.45
2017-05-09T20:41:30.222Z,3.78
2017-05-09T20:43:59.843Z,3.10
2017-05-09T20:46:30.327Z,3.43
2017-05-09T20:48:59.243Z,5.30
2017-05-09T20:51:28.208Z,3.32
2017-05-09T20:53:57.141Z,3.28
2017-05-09T20:56:26.059Z,3.18
2017-05-09T20:58:55.007Z,3.42
2017-05-09T21:01:23.965Z,3.38
2017-05-09T21:03:52.909Z,3.02
2017-05-09T21:06:21.873Z,2.95
2017-05-09T21:08:50.812Z,3.02
2017-05-09T21:11:20.488Z,3.30
2017-05-09T21:13:49.448Z,3.58
2017-05-09T21:16:18.363Z,3.20
2017-05-09T21:18:47.291Z,3.35
2017-05-09T21:21:16.995Z,4.70
2017-05-09T21:23:45.960Z,3.08
2017-05-09T21:26:14.892Z,3.50
2017-05-09T21:28:44.612Z,3.45
2017-05-09T21:31:14.290Z,2.90
2017-05-09T21:33:43.556Z,3.30
2017-05-09T21:36:12.528Z,3.05
2017-05-09T21:38:41.574Z,3.12
2017-05-09T21:41:10.520Z,3.58
2017-05-09T21:43:39.475Z,3.43
2017-05-09T21:46:08.414Z,2.68
2017-05-09T21:48:37.341Z,2.73
2017-05-09T21:51:06.302Z,3.13
2017-05-09T21:53:35.233Z,3.57
2017-05-09T21:56:04.197Z,2.82
2017-05-09T21:58:33.130Z,2.90
2017-05-09T22:01:02.047Z,2.77
2017-05-09T22:03:31.698Z,3.33
2017-05-09T22:06:00.653Z,3.25
2017-05-09T22:08:29.575Z,3.35
2017-05-09T22:10:58.517Z,3.05
2017-05-09T22:13:28.191Z,2.78
2017-05-09T22:15:57.121Z,2.80
2017-05-09T22:18:26.774Z,2.65
2017-05-09T22:20:55.713Z,2.55
2017-05-09T22:23:24.633Z,2.57
2017-05-09T22:25:53.565Z,3.83
2017-05-09T22:28:23.375Z,2.82
2017-05-09T22:30:52.287Z,2.93
2017-05-09T22:33:21.216Z,3.00
2017-05-09T22:35:50.893Z,3.35
2017-05-09T22:38:19.798Z,2.53
2017-05-09T22:40:48.736Z,3.52
2017-05-09T22:43:17.686Z,3.00
2017-05-09T22:45:47.366Z,3.48
2017-05-09T22:48:16.304Z,3.28
2017-05-09T22:50:45.981Z,3.13
2017-05-09T22:53:14.918Z,3.15
2017-05-09T22:55:43.830Z,3.45
2017-05-09T22:58:12.790Z,4.03
2017-05-09T23:00:42.438Z,2.72
2017-05-09T23:03:11.348Z,2.62
2017-05-09T23:05:40.317Z,3.03
2017-05-09T23:08:09.241Z,3.70
2017-05-09T23:10:38.150Z,3.33
2017-05-09T23:13:07.083Z,3.22
2017-05-09T23:15:36.009Z,3.37
2017-05-09T23:18:04.943Z,3.10
2017-05-09T23:20:34.625Z,3.37
2017-05-09T23:23:03.555Z,3.57
2017-05-09T23:25:32.462Z,3.32
2017-05-09T23:28:01.406Z,4.02
2017-05-09T23:30:30.336Z,2.85
2017-05-09T23:32:59.266Z,3.18
2017-05-09T23:35:28.204Z,3.78
2017-05-09T23:37:57.849Z,3.25
2017-05-09T23:40:26.753Z,3.83
2017-05-09T23:42:55.708Z,3.23
2017-05-09T23:45:24.637Z,3.63
2017-05-09T23:47:53.561Z,3.70
2017-05-09T23:50:22.512Z,3.92
2017-05-09T23:52:51.415Z,3.25
2017-05-09T23:55:20.327Z,4.35
2017-05-09T23:57:49.262Z,4.42
